Time;durP1;ratioP1;P1;durP2;ratioP2;P2;SDS_P1;SDS_P2;PMS_P1;PMS_P2;Temp;Humidity;BMP_temperature;BMP_pressure;BME280_temperature;BME280_humidity;BME280_pressure;Samples;Min_cycle;Max_cycle;Signal;HPM_P1;HPM_P2
2023/02/07 00:00:16;;;;;;;6.55;3.67;;;;;;;1.79;55.60;102159.81;10388219;28;20529;-65
2023/02/07 00:05:18;;;;;;;6.05;3.55;;;;;;;1.69;55.97;102148.53;10388929;28;20056;-65
2023/02/07 00:10:20;;;;;;;5.20;2.90;;;;;;;1.77;55.70;102148.59;10388600;28;20069;-65
2023/02/07 00:15:22;;;;;;;7.30;3.67;;;;;;;1.75;55.49;102153.75;10389336;28;20277;-65
2023/02/07 00:20:24;;;;;;;6.35;3.30;;;;;;;1.62;55.42;102144.16;10384810;28;20047;-66
2023/02/07 00:25:26;;;;;;;6.20;3.53;;;;;;;1.69;55.78;102152.81;10388523;28;20429;-66
2023/02/07 00:30:27;;;;;;;4.65;3.00;;;;;;;1.78;55.42;102158.09;10372787;28;20056;-65
2023/02/07 00:35:29;;;;;;;4.25;2.85;;;;;;;1.84;55.30;102158.16;10379594;28;20373;-66
2023/02/07 00:40:31;;;;;;;4.47;3.10;;;;;;;1.94;55.65;102152.25;10376876;28;20061;-66
2023/02/07 00:45:32;;;;;;;4.95;2.90;;;;;;;2.08;55.74;102151.53;10377719;28;20252;-65
2023/02/07 00:50:34;;;;;;;3.40;2.30;;;;;;;1.97;54.75;102142.81;10373473;28;20147;-66
2023/02/07 00:55:36;;;;;;;4.03;2.58;;;;;;;1.71;55.56;102144.25;10374174;28;20552;-65
2023/02/07 01:00:38;;;;;;;3.88;2.58;;;;;;;1.57;55.25;102138.06;10372530;28;20050;-65
2023/02/07 01:05:40;;;;;;;4.25;2.10;;;;;;;1.50;54.92;102125.09;10375827;28;20564;-65
2023/02/07 01:10:44;;;;;;;5.13;2.30;;;;;;;1.52;55.16;102110.50;10375329;28;20060;-65
2023/02/07 01:15:47;;;;;;;3.40;2.28;;;;;;;1.66;55.38;102101.22;10384180;28;20346;-65
2023/02/07 01:20:49;;;;;;;3.65;2.40;;;;;;;1.62;55.08;102109.75;10376952;28;20045;-65
2023/02/07 01:25:51;;;;;;;3.20;2.03;;;;;;;1.60;54.90;102124.34;10370322;28;20132;-65
2023/02/07 01:30:52;;;;;;;4.80;2.38;;;;;;;1.41;55.07;102138.75;10373850;28;20619;-65
2023/02/07 01:35:54;;;;;;;3.47;2.13;;;;;;;1.32;55.19;102151.50;10373283;28;20048;-65
2023/02/07 01:40:55;;;;;;;3.80;2.20;;;;;;;1.22;55.63;102134.19;10369069;28;20049;-65
2023/02/07 01:45:57;;;;;;;3.63;2.17;;;;;;;1.01;55.69;102123.59;10377877;28;20334;-65
2023/02/07 01:51:03;;;;;;;3.10;2.10;;;;;;;0.81;55.95;102119.88;10381716;28;20414;-65
2023/02/07 01:56:08;;;;;;;3.60;2.10;;;;;;;0.73;56.32;102116.31;10377476;28;20128;-65
2023/02/07 02:01:17;;;;;;;3.22;2.08;;;;;;;0.79;56.92;102124.97;10384215;28;20053;-65
2023/02/07 02:06:22;;;;;;;3.75;2.00;;;;;;;1.02;56.61;102127.88;10384164;28;20533;-65
2023/02/07 02:11:49;;;;;;;2.92;2.00;;;;;;;0.99;55.53;102126.13;10384718;28;20413;-65
2023/02/07 02:16:56;;;;;;;3.65;2.13;;;;;;;0.97;56.09;102112.34;10383475;28;20056;-65
2023/02/07 02:22:55;;;;;;;3.25;2.05;;;;;;;0.97;55.79;102120.09;10384489;28;20424;-65
2023/02/07 02:28:18;;;;;;;3.95;2.22;;;;;;;1.09;55.85;102112.56;10370065;28;20897;-65
2023/02/07 02:33:42;;;;;;;3.50;2.03;;;;;;;1.20;56.20;102104.94;10368420;28;20045;-65
2023/02/07 02:39:06;;;;;;;3.60;2.58;;;;;;;1.03;56.56;102104.75;10372272;28;20049;-65
2023/02/07 02:44:17;;;;;;;3.40;2.17;;;;;;;0.82;56.90;102099.28;10371326;28;20045;-65
2023/02/07 02:49:20;;;;;;;2.72;1.70;;;;;;;0.59;57.13;102090.34;10373102;28;20045;-65
2023/02/07 02:54:35;;;;;;;3.67;2.22;;;;;;;0.52;57.42;102083.38;10376851;28;20045;-65
2023/02/07 02:59:40;;;;;;;4.00;2.03;;;;;;;0.34;57.56;102090.81;10374393;28;20076;-65
2023/02/07 03:05:06;;;;;;;5.63;2.33;;;;;;;0.22;58.20;102094.03;10383720;28;20049;-65
2023/02/07 03:10:49;;;;;;;3.05;1.92;;;;;;;0.11;57.90;102103.31;10379400;28;20414;-64
2023/02/07 03:16:16;;;;;;;4.18;2.20;;;;;;;0.26;58.28;102094.97;10387036;28;20045;-65
2023/02/07 03:22:04;;;;;;;3.20;2.10;;;;;;;0.20;57.36;102085.44;10390966;28;20057;-65
2023/02/07 03:27:10;;;;;;;3.00;2.03;;;;;;;0.14;57.68;102084.47;10381288;28;20045;-64
2023/02/07 03:32:13;;;;;;;3.80;2.40;;;;;;;0.04;57.89;102092.84;10387123;28;20068;-64
2023/02/07 03:37:23;;;;;;;3.58;2.60;;;;;;;-0.06;58.27;102096.13;10386339;28;20045;-65
2023/02/07 03:42:32;;;;;;;4.55;2.80;;;;;;;-0.23;58.68;102090.69;10386326;28;20057;-64
2023/02/07 03:47:33;;;;;;;4.35;2.30;;;;;;;-0.39;58.86;102089.53;10382801;28;20379;-64
2023/02/07 03:52:35;;;;;;;4.07;2.40;;;;;;;-0.43;59.24;102087.72;10386081;28;20045;-64
2023/02/07 03:57:37;;;;;;;3.78;2.47;;;;;;;-0.50;59.31;102085.03;10391912;28;20411;-64
2023/02/07 04:02:39;;;;;;;4.13;2.60;;;;;;;-0.58;59.45;102076.28;10396370;28;20569;-65
2023/02/07 04:07:41;;;;;;;4.78;2.83;;;;;;;-0.58;59.70;102082.31;10393817;28;20498;-64
2023/02/07 04:12:43;;;;;;;4.22;2.60;;;;;;;-0.64;59.50;102081.31;10389215;28;20341;-65
2023/02/07 04:17:44;;;;;;;5.18;2.70;;;;;;;-0.69;59.67;102067.50;10390659;28;20058;-64
2023/02/07 04:22:46;;;;;;;6.25;3.10;;;;;;;-0.74;60.38;102079.41;10390528;28;20046;-65
2023/02/07 04:27:48;;;;;;;4.75;3.10;;;;;;;-0.77;60.62;102075.06;10382912;28;20045;-64
2023/02/07 04:32:49;;;;;;;5.45;2.95;;;;;;;-0.82;60.40;102081.78;10377486;28;20064;-64
2023/02/07 04:37:51;;;;;;;3.70;2.60;;;;;;;-0.85;60.55;102089.44;10376816;28;20325;-64
2023/02/07 04:42:52;;;;;;;4.32;2.90;;;;;;;-0.88;60.96;102107.34;10378568;28;20045;-65
2023/02/07 04:47:54;;;;;;;5.25;3.40;;;;;;;-0.88;61.00;102104.78;10377412;28;20053;-65
2023/02/07 04:52:56;;;;;;;11.35;3.63;;;;;;;-0.92;60.82;102102.97;10374888;28;20052;-65
2023/02/07 04:57:57;;;;;;;5.82;2.90;;;;;;;-0.98;61.37;102096.88;10377549;28;20041;-64
2023/02/07 05:02:59;;;;;;;6.63;2.90;;;;;;;-1.03;61.54;102107.03;10378675;28;20057;-64
2023/02/07 05:08:01;;;;;;;3.88;2.75;;;;;;;-1.10;61.66;102100.03;10374804;28;20079;-64
2023/02/07 05:13:04;;;;;;;6.47;3.05;;;;;;;-1.15;61.92;102107.63;10384759;28;20049;-64
2023/02/07 05:18:05;;;;;;;6.07;3.17;;;;;;;-1.23;62.16;102110.88;10387379;28;21572;-65
2023/02/07 05:23:07;;;;;;;5.38;3.17;;;;;;;-1.33;62.39;102102.06;10378946;28;20498;-64
2023/02/07 05:28:09;;;;;;;4.05;2.80;;;;;;;-1.34;62.61;102090.09;10374057;28;20046;-64
2023/02/07 05:33:11;;;;;;;4.25;2.85;;;;;;;-1.36;62.55;102090.88;10374511;28;20553;-64
2023/02/07 05:38:15;;;;;;;4.68;3.40;;;;;;;-1.44;62.44;102092.41;10375725;28;20576;-64
2023/02/07 05:43:16;;;;;;;54.92;30.83;;;;;;;-1.49;62.79;102097.41;10375292;28;20060;-64
2023/02/07 05:48:18;;;;;;;7.55;5.28;;;;;;;-1.50;62.91;102094.81;10377543;28;20076;-65
2023/02/07 05:53:20;;;;;;;6.78;4.47;;;;;;;-1.51;62.84;102103.38;10370963;28;20055;-64
2023/02/07 05:58:21;;;;;;;7.78;4.22;;;;;;;-1.56;62.75;102110.06;10382284;28;20064;-65
2023/02/07 06:03:23;;;;;;;5.95;4.43;;;;;;;-1.74;62.82;102113.06;10385281;28;20057;-64
2023/02/07 06:08:24;;;;;;;7.95;5.00;;;;;;;-1.85;63.04;102118.75;10384876;28;20132;-65
2023/02/07 06:13:26;;;;;;;7.53;4.78;;;;;;;-1.83;63.10;102123.09;10385257;28;20232;-64
2023/02/07 06:18:28;;;;;;;7.43;4.70;;;;;;;-1.91;63.15;102129.72;10385187;28;20486;-65
2023/02/07 06:23:29;;;;;;;6.35;4.75;;;;;;;-1.90;63.07;102134.03;10385904;28;20384;-65
2023/02/07 06:28:31;;;;;;;7.07;4.90;;;;;;;-1.96;63.33;102140.69;10376031;28;20049;-65
2023/02/07 06:33:32;;;;;;;7.78;5.10;;;;;;;-1.93;63.43;102136.50;10377450;28;20049;-64
2023/02/07 06:38:34;;;;;;;7.57;5.18;;;;;;;-2.00;63.55;102140.59;10370945;28;20578;-64
2023/02/07 06:43:37;;;;;;;8.30;5.47;;;;;;;-2.10;63.81;102145.44;10372095;28;20383;-64
2023/02/07 06:48:39;;;;;;;7.57;5.22;;;;;;;-2.14;63.93;102149.63;10371545;28;20199;-65
2023/02/07 06:53:41;;;;;;;7.65;5.30;;;;;;;-2.21;64.08;102164.81;10378845;28;20057;-65
2023/02/07 06:58:42;;;;;;;7.80;5.88;;;;;;;-2.18;64.27;102187.94;10372785;28;20046;-65
2023/02/07 07:03:45;;;;;;;8.30;5.90;;;;;;;-2.17;64.08;102205.94;10371040;28;20053;-65
2023/02/07 07:08:48;;;;;;;9.60;5.93;;;;;;;-2.12;64.08;102227.44;10370779;28;20046;-65
2023/02/07 07:13:50;;;;;;;9.80;6.35;;;;;;;-2.11;64.28;102230.88;10374647;28;20053;-65
2023/02/07 07:18:51;;;;;;;13.18;7.03;;;;;;;-1.98;64.41;102233.81;10374191;28;20048;-65
2023/02/07 07:23:54;;;;;;;12.60;7.47;;;;;;;-1.82;64.30;102226.53;10375525;28;20057;-65
2023/02/07 07:28:58;;;;;;;11.50;7.30;;;;;;;-1.66;64.13;102236.38;10372139;28;20049;-65
2023/02/07 07:34:00;;;;;;;13.50;7.30;;;;;;;-1.60;63.85;102244.25;10376213;28;20202;-65
2023/02/07 07:39:02;;;;;;;10.63;7.38;;;;;;;-1.57;63.69;102244.31;10373719;28;20505;-65
2023/02/07 07:44:04;;;;;;;13.73;8.15;;;;;;;-1.44;63.50;102246.38;10369941;28;20506;-65
2023/02/07 07:49:06;;;;;;;17.33;8.13;;;;;;;-1.38;63.38;102257.66;10387206;28;20045;-65
2023/02/07 07:54:07;;;;;;;12.50;8.20;;;;;;;-0.74;62.36;102254.94;10373019;28;20057;-66
2023/02/07 07:59:09;;;;;;;13.65;8.75;;;;;;;-0.48;61.20;102264.13;10376480;28;20057;-65
2023/02/07 08:04:23;;;;;;;12.55;8.45;;;;;;;0.22;59.66;102251.00;10372309;28;20472;-65
2023/02/07 08:09:25;;;;;;;12.68;9.02;;;;;;;0.08;59.76;102257.59;10378072;28;20057;-65
2023/02/07 08:14:26;;;;;;;14.77;9.30;;;;;;;0.04;59.07;102271.22;10371935;28;20042;-65
2023/02/07 08:19:28;;;;;;;12.93;9.13;;;;;;;-0.02;59.56;102271.09;10380009;28;20697;-65
2023/02/07 08:24:30;;;;;;;15.32;10.80;;;;;;;0.11;59.19;102267.97;10374869;28;20049;-65
2023/02/07 08:29:31;;;;;;;15.98;10.38;;;;;;;0.13;58.93;102271.44;10389875;28;20417;-65
2023/02/07 08:34:36;;;;;;;13.80;10.07;;;;;;;0.12;58.64;102266.22;10387508;28;20045;-65
2023/02/07 08:39:38;;;;;;;17.77;11.90;;;;;;;0.21;58.15;102269.00;10404335;28;20068;-65
2023/02/07 08:44:39;;;;;;;17.70;12.35;;;;;;;0.36;57.99;102269.31;10403762;28;20049;-64
2023/02/07 08:49:41;;;;;;;18.27;12.68;;;;;;;0.58;57.29;102266.28;10386162;28;20459;-65
2023/02/07 08:54:43;;;;;;;17.65;12.20;;;;;;;0.58;56.07;102260.25;10386683;28;20042;-65
2023/02/07 08:59:44;;;;;;;18.40;12.73;;;;;;;0.71;56.34;102273.38;10386312;28;20049;-65
2023/02/07 09:04:46;;;;;;;18.63;12.63;;;;;;;0.77;55.92;102276.03;10385612;28;20054;-64
2023/02/07 09:09:48;;;;;;;19.27;12.60;;;;;;;0.88;55.89;102268.50;10387943;28;20409;-65
2023/02/07 09:14:49;;;;;;;16.85;12.05;;;;;;;1.05;55.42;102255.06;10387938;28;20046;-64
2023/02/07 09:19:51;;;;;;;15.00;10.95;;;;;;;1.06;55.22;102245.63;10388527;28;20046;-65
2023/02/07 09:24:52;;;;;;;18.58;11.65;;;;;;;0.87;54.78;102239.28;10387034;28;20045;-65
2023/02/07 09:29:54;;;;;;;14.63;9.88;;;;;;;0.82;55.04;102240.94;10387723;28;20049;-65
2023/02/07 09:34:57;;;;;;;17.15;10.77;;;;;;;0.83;54.81;102236.66;10386920;28;20056;-66
2023/02/07 09:39:58;;;;;;;17.23;10.70;;;;;;;0.69;54.94;102230.44;10386195;28;20046;-65
2023/02/07 09:45:10;;;;;;;14.32;10.65;;;;;;;0.66;54.23;102223.50;10386401;28;20049;-65
2023/02/07 09:50:19;;;;;;;15.13;10.55;;;;;;;0.75;54.68;102233.09;10386825;28;20060;-65
2023/02/07 09:55:25;;;;;;;14.95;10.70;;;;;;;0.84;54.44;102223.81;10387909;28;20379;-65
2023/02/07 10:00:30;;;;;;;14.85;10.43;;;;;;;0.78;54.37;102238.28;10385000;28;20057;-65
2023/02/07 10:05:40;;;;;;;14.57;10.77;;;;;;;0.72;54.17;102233.03;10387381;28;20081;-65
2023/02/07 10:11:23;;;;;;;15.13;10.43;;;;;;;0.97;53.72;102236.03;10385782;28;20068;-65
2023/02/07 10:17:00;;;;;;;15.48;10.10;;;;;;;1.02;52.45;102230.94;10387301;28;20041;-65
2023/02/07 10:22:20;;;;;;;15.45;9.88;;;;;;;1.24;52.97;102225.28;10384768;28;20059;-65
2023/02/07 10:27:30;;;;;;;15.30;8.65;;;;;;;1.27;51.92;102230.50;10386571;28;20061;-65
2023/02/07 10:32:37;;;;;;;12.85;8.93;;;;;;;1.42;52.80;102225.53;10384611;28;20405;-65
2023/02/07 10:37:38;;;;;;;13.88;9.23;;;;;;;1.58;52.08;102216.31;10383665;28;20057;-65
2023/02/07 10:42:42;;;;;;;16.63;10.10;;;;;;;1.69;52.04;102225.91;10384750;28;20041;-65
2023/02/07 10:47:44;;;;;;;13.85;10.35;;;;;;;1.88;51.48;102222.72;10386104;28;20053;-65
2023/02/07 10:52:51;;;;;;;14.13;9.85;;;;;;;1.84;49.64;102223.53;10383719;28;20057;-65
2023/02/07 10:57:54;;;;;;;13.15;9.43;;;;;;;1.99;51.24;102209.94;10385715;28;20049;-65
2023/02/07 11:03:13;;;;;;;13.23;9.05;;;;;;;2.09;49.89;102211.78;10384529;28;20062;-64
2023/02/07 11:08:14;;;;;;;14.10;9.70;;;;;;;2.17;50.27;102217.91;10384365;28;20045;-65
2023/02/07 11:13:19;;;;;;;14.32;8.75;;;;;;;2.22;49.72;102211.06;10384667;28;20410;-65
2023/02/07 11:18:43;;;;;;;15.32;9.05;;;;;;;2.09;48.56;102197.13;10384566;28;20049;-65
2023/02/07 11:23:48;;;;;;;14.25;8.15;;;;;;;2.20;49.49;102210.16;10384265;28;20041;-65
2023/02/07 11:28:52;;;;;;;12.80;8.80;;;;;;;2.24;49.21;102206.78;10384219;28;20041;-65
2023/02/07 11:34:10;;;;;;;12.02;9.05;;;;;;;2.20;48.23;102208.47;10392082;28;20060;-65
2023/02/07 11:39:17;;;;;;;12.43;7.85;;;;;;;2.29;48.15;102205.13;10391819;28;20520;-65
2023/02/07 11:44:22;;;;;;;12.10;8.52;;;;;;;2.32;47.75;102205.13;10392420;28;20459;-65
2023/02/07 11:49:41;;;;;;;10.80;7.57;;;;;;;2.29;45.29;102197.38;10388421;28;20053;-65
2023/02/07 11:54:50;;;;;;;13.50;7.78;;;;;;;2.44;46.78;102187.16;10386881;28;20068;-65
2023/02/07 12:00:05;;;;;;;13.38;7.95;;;;;;;2.43;45.37;102182.00;10390560;28;20065;-65
2023/02/07 12:05:16;;;;;;;9.93;6.97;;;;;;;2.53;44.79;102176.06;10388238;28;20050;-65
2023/02/07 12:10:33;;;;;;;9.55;6.30;;;;;;;2.60;44.16;102172.69;10391846;28;20045;-65
2023/02/07 12:15:59;;;;;;;11.35;7.25;;;;;;;2.74;43.94;102168.50;10384776;28;20222;-66
2023/02/07 12:21:13;;;;;;;9.45;6.25;;;;;;;2.91;44.98;102161.72;10382735;28;20483;-66
2023/02/07 12:26:32;;;;;;;9.55;6.30;;;;;;;2.98;42.33;102161.78;10386610;28;20053;-65
2023/02/07 12:31:36;;;;;;;11.70;7.10;;;;;;;2.98;43.46;102153.16;10382768;28;20080;-65
2023/02/07 12:36:45;;;;;;;13.27;6.95;;;;;;;3.12;43.46;102161.00;10387625;28;20049;-65
2023/02/07 12:41:54;;;;;;;9.18;6.15;;;;;;;3.14;42.95;102159.28;10383143;28;20052;-65
2023/02/07 12:47:20;;;;;;;12.48;6.22;;;;;;;3.24;42.00;102155.88;10384221;28;20139;-65
2023/02/07 12:52:44;;;;;;;12.95;7.13;;;;;;;3.38;43.02;102154.22;10383771;28;20060;-65
2023/02/07 12:58:07;;;;;;;10.68;7.05;;;;;;;3.49;42.77;102132.75;10380271;28;21935;-65
2023/02/07 13:03:30;;;;;;;11.60;7.80;;;;;;;3.73;41.19;102126.78;10378651;28;20082;-65
2023/02/07 13:08:47;;;;;;;10.93;7.15;;;;;;;3.88;42.14;102126.88;10384477;28;20088;-65
2023/02/07 13:13:54;;;;;;;12.15;6.78;;;;;;;3.87;39.75;102125.13;10383996;28;20518;-65
2023/02/07 13:19:10;;;;;;;9.95;7.00;;;;;;;4.09;39.78;102116.53;10381741;28;21529;-65
2023/02/07 13:24:15;;;;;;;9.77;5.97;;;;;;;4.04;39.92;102110.50;10379733;28;20053;-65
2023/02/07 13:29:19;;;;;;;8.88;5.80;;;;;;;4.09;40.91;102105.34;10377210;28;20454;-65
2023/02/07 13:34:25;;;;;;;8.98;5.57;;;;;;;4.15;38.05;102108.78;10381094;28;20061;-65
2023/02/07 13:40:16;;;;;;;9.10;6.15;;;;;;;4.10;38.70;102101.88;10379587;28;20049;-65
2023/02/07 13:45:45;;;;;;;9.55;5.90;;;;;;;4.26;38.95;102099.31;10382738;28;20163;-65
2023/02/07 13:51:03;;;;;;;9.15;5.75;;;;;;;4.41;38.28;102096.69;10378058;28;20053;-65
2023/02/07 14:01:35;;;;;;;9.60;5.25;;;;;;;4.59;39.07;102088.06;10378501;28;20354;-65
2023/02/07 14:06:53;;;;;;;9.60;6.45;;;;;;;4.35;36.69;102099.28;10383211;28;20052;-65
2023/02/07 14:12:18;;;;;;;10.02;6.07;;;;;;;4.26;37.06;102088.94;10374909;28;20049;-65
2023/02/07 14:17:26;;;;;;;8.95;5.30;;;;;;;4.44;38.77;102083.75;10382049;28;20060;-65
2023/02/07 14:22:50;;;;;;;8.95;5.60;;;;;;;4.52;36.94;102089.78;10372813;28;20129;-66
2023/02/07 14:27:52;;;;;;;8.50;5.60;;;;;;;4.67;38.74;102091.50;10382410;28;20041;-65
2023/02/07 14:33:14;;;;;;;8.20;5.93;;;;;;;4.52;37.10;102084.63;10371265;28;20045;-66
2023/02/07 14:38:26;;;;;;;8.07;5.80;;;;;;;4.63;37.83;102090.66;10382342;28;20056;-65
2023/02/07 14:43:55;;;;;;;12.85;6.38;;;;;;;4.65;38.01;102098.44;10377476;28;20402;-65
2023/02/07 14:49:34;;;;;;;11.43;6.23;;;;;;;4.54;36.83;102098.44;10370714;28;20662;-65
2023/02/07 14:54:44;;;;;;;9.20;6.05;;;;;;;4.48;38.28;102100.16;10381963;28;20493;-65
2023/02/07 15:00:11;;;;;;;10.38;6.53;;;;;;;4.57;38.08;102095.84;10382440;28;20612;-65
2023/02/07 15:05:12;;;;;;;11.23;5.93;;;;;;;4.64;37.86;102102.75;10385304;28;20519;-66
2023/02/07 15:10:26;;;;;;;9.13;5.93;;;;;;;4.54;37.16;102111.38;10387183;28;20054;-65
2023/02/07 15:15:47;;;;;;;10.32;6.22;;;;;;;4.40;37.13;102114.84;10386350;28;20143;-65
2023/02/07 15:20:54;;;;;;;11.73;6.33;;;;;;;4.39;38.47;102119.16;10388523;28;20061;-65
2023/02/07 15:26:04;;;;;;;9.23;6.47;;;;;;;4.41;38.23;102120.00;10393288;28;20149;-65
2023/02/07 15:31:15;;;;;;;9.90;6.40;;;;;;;4.27;37.92;102116.56;10389941;28;20395;-65
2023/02/07 15:36:44;;;;;;;13.10;6.47;;;;;;;4.17;38.39;102111.41;10391559;28;20049;-64
2023/02/07 15:41:48;;;;;;;11.10;6.25;;;;;;;4.04;39.02;102118.28;10388890;28;20045;-65
2023/02/07 15:46:57;;;;;;;10.18;6.72;;;;;;;3.91;39.02;102119.09;10390524;28;20136;-65
2023/02/07 15:52:25;;;;;;;10.77;6.85;;;;;;;3.66;38.48;102122.47;10390369;28;20493;-65
2023/02/07 15:57:39;;;;;;;12.10;6.75;;;;;;;3.61;39.58;102116.41;10380184;28;20433;-65
2023/02/07 16:02:46;;;;;;;9.82;6.43;;;;;;;3.52;39.47;102099.13;10384815;28;20533;-65
2023/02/07 16:07:49;;;;;;;8.55;5.93;;;;;;;3.33;39.52;102109.41;10386223;28;20049;-65
2023/02/07 16:12:58;;;;;;;11.90;6.93;;;;;;;3.11;39.70;102108.41;10381806;28;20533;-65
2023/02/07 16:18:01;;;;;;;11.43;6.80;;;;;;;2.88;40.68;102115.19;10386222;28;20549;-65
2023/02/07 16:23:08;;;;;;;9.75;6.43;;;;;;;2.74;41.47;102127.16;10389822;28;20045;-65
2023/02/07 16:28:14;;;;;;;11.88;6.93;;;;;;;2.54;41.70;102124.41;10388187;28;20053;-64
2023/02/07 16:33:16;;;;;;;12.07;7.45;;;;;;;2.39;42.27;102139.78;10390023;28;20557;-64
2023/02/07 16:38:17;;;;;;;10.27;7.15;;;;;;;2.27;43.04;102138.81;10388940;28;20049;-64
2023/02/07 16:43:36;;;;;;;10.48;6.80;;;;;;;2.07;41.68;102146.38;10387758;28;20609;-64
2023/02/07 16:48:37;;;;;;;11.40;6.78;;;;;;;1.98;42.66;102151.44;10388754;28;20057;-64
2023/02/07 16:53:39;;;;;;;12.45;6.88;;;;;;;1.87;42.08;102147.88;10388909;28;20054;-64
2023/02/07 16:58:41;;;;;;;13.20;7.50;;;;;;;1.76;44.78;102152.94;10384836;28;20798;-65
2023/02/07 17:03:43;;;;;;;12.48;8.30;;;;;;;1.71;45.43;102166.59;10385077;28;20056;-65
2023/02/07 17:08:45;;;;;;;12.10;7.93;;;;;;;1.65;44.28;102163.94;10381441;28;20069;-65
2023/02/07 17:13:47;;;;;;;16.50;9.10;;;;;;;1.55;44.34;102173.28;10386710;28;20053;-65
2023/02/07 17:18:48;;;;;;;15.13;9.57;;;;;;;1.43;44.60;102170.56;10387129;28;20053;-65
2023/02/07 17:23:50;;;;;;;15.95;9.43;;;;;;;1.18;45.58;102171.06;10387023;28;20276;-66
2023/02/07 17:28:53;;;;;;;12.77;8.40;;;;;;;1.10;45.52;102170.97;10384935;28;20456;-65
2023/02/07 17:33:55;;;;;;;12.55;8.30;;;;;;;0.95;45.77;102175.88;10387141;28;20053;-65
2023/02/07 17:38:57;;;;;;;15.50;10.05;;;;;;;0.82;46.68;102184.28;10387296;28;20052;-66
2023/02/07 17:43:59;;;;;;;17.60;9.32;;;;;;;0.67;47.53;102184.03;10385609;28;20056;-65
2023/02/07 17:49:02;;;;;;;20.35;13.15;;;;;;;0.54;48.31;102188.09;10387215;28;20506;-65
2023/02/07 17:54:03;;;;;;;16.13;10.65;;;;;;;0.47;50.11;102187.97;10387012;28;20053;-66
2023/02/07 17:59:06;;;;;;;19.10;11.98;;;;;;;0.44;49.53;102180.22;10381258;28;20422;-65
2023/02/07 18:04:08;;;;;;;18.13;11.20;;;;;;;0.29;49.88;102187.66;10382611;28;20057;-65
2023/02/07 18:09:17;;;;;;;19.55;10.80;;;;;;;0.23;50.33;102185.84;10380359;28;20049;-66
2023/02/07 18:14:19;;;;;;;21.65;12.55;;;;;;;0.25;50.20;102180.72;10378249;28;20056;-65
2023/02/07 18:19:21;;;;;;;18.20;11.80;;;;;;;0.34;49.68;102170.59;10381591;28;20260;-65
2023/02/07 18:24:22;;;;;;;13.85;8.43;;;;;;;0.44;49.47;102172.50;10385537;28;20060;-65
2023/02/07 18:29:24;;;;;;;32.00;17.58;;;;;;;0.08;50.00;102174.41;10384548;28;20211;-65
2023/02/07 18:34:26;;;;;;;19.33;12.40;;;;;;;-0.12;50.66;102174.03;10381356;28;20053;-65
2023/02/07 18:39:27;;;;;;;21.40;11.73;;;;;;;-0.17;51.18;102182.50;10378435;28;20051;-65
2023/02/07 18:44:29;;;;;;;19.40;11.40;;;;;;;-0.12;51.06;102183.44;10383960;28;20052;-65
2023/02/07 18:49:32;;;;;;;19.23;11.35;;;;;;;-0.17;51.50;102188.53;10383323;28;20050;-65
2023/02/07 18:54:35;;;;;;;38.40;15.57;;;;;;;-0.28;51.91;102179.72;10379456;28;20097;-65
2023/02/07 18:59:37;;;;;;;18.90;10.63;;;;;;;-0.40;53.04;102174.31;10381879;28;20115;-65
2023/02/07 19:04:40;;;;;;;13.63;8.20;;;;;;;-0.45;53.19;102175.91;10385388;28;20059;-65
2023/02/07 19:09:42;;;;;;;14.05;8.85;;;;;;;-0.54;53.45;102171.47;10381741;28;20049;-66
2023/02/07 19:14:43;;;;;;;16.38;10.07;;;;;;;-0.60;53.91;102175.63;10380962;28;20053;-66
2023/02/07 19:19:45;;;;;;;16.85;10.38;;;;;;;-0.66;53.97;102178.94;10381018;28;20390;-65
2023/02/07 19:24:47;;;;;;;20.15;11.10;;;;;;;-0.73;54.41;102182.19;10393396;28;20049;-65
2023/02/07 19:29:48;;;;;;;15.93;9.35;;;;;;;-0.76;54.69;102176.13;10377785;28;20049;-65
2023/02/07 19:34:50;;;;;;;20.27;10.70;;;;;;;-0.79;54.98;102182.06;10384978;28;20057;-66
2023/02/07 19:39:54;;;;;;;16.25;10.65;;;;;;;-0.84;54.95;102175.94;10385189;28;20073;-65
2023/02/07 19:44:56;;;;;;;14.65;9.82;;;;;;;-0.88;55.10;102178.44;10382713;28;20049;-66
2023/02/07 19:49:58;;;;;;;15.80;10.30;;;;;;;-0.94;55.56;102188.56;10380334;28;20144;-66
2023/02/07 19:54:59;;;;;;;14.43;9.30;;;;;;;-0.98;55.73;102186.75;10385741;28;20076;-66
2023/02/07 20:00:02;;;;;;;19.70;10.48;;;;;;;-1.03;55.70;102183.19;10390299;28;20182;-66
2023/02/07 20:05:06;;;;;;;16.08;9.52;;;;;;;-1.10;56.08;102179.63;10387981;28;20346;-66
2023/02/07 20:10:09;;;;;;;15.55;9.40;;;;;;;-1.16;56.14;102187.19;10388045;28;20057;-66
2023/02/07 20:15:11;;;;;;;12.40;8.73;;;;;;;-1.20;56.36;102185.38;10388638;28;20148;-66
2023/02/07 20:20:13;;;;;;;19.83;9.80;;;;;;;-1.31;56.67;102200.50;10388774;28;20136;-66
2023/02/07 20:25:15;;;;;;;15.50;9.18;;;;;;;-1.40;56.88;102191.72;10387452;28;20046;-66
2023/02/07 20:30:17;;;;;;;17.73;8.38;;;;;;;-1.45;56.89;102196.75;10388437;28;20616;-66
2023/02/07 20:35:19;;;;;;;12.45;8.43;;;;;;;-1.46;57.17;102196.72;10388948;28;20057;-66
2023/02/07 20:40:21;;;;;;;15.35;8.90;;;;;;;-1.48;57.15;102206.06;10389288;28;20045;-66
2023/02/07 20:45:22;;;;;;;15.70;9.95;;;;;;;-1.49;57.51;102209.47;10389038;28;20518;-66
2023/02/07 20:50:24;;;;;;;16.50;9.15;;;;;;;-1.53;57.50;102207.66;10389472;28;20060;-66
2023/02/07 20:55:26;;;;;;;16.63;10.20;;;;;;;-1.56;57.47;102221.28;10389127;28;20421;-67
2023/02/07 21:00:28;;;;;;;16.85;10.63;;;;;;;-1.79;57.83;102221.47;10387359;28;20083;-66
2023/02/07 21:05:29;;;;;;;16.20;10.13;;;;;;;-1.80;58.09;102212.94;10389286;28;20056;-66
2023/02/07 21:10:31;;;;;;;18.08;10.23;;;;;;;-1.79;58.26;102213.78;10387789;28;20049;-66
2023/02/07 21:15:32;;;;;;;17.90;9.93;;;;;;;-1.79;58.33;102203.53;10388636;28;20060;-66
2023/02/07 21:20:36;;;;;;;17.70;11.52;;;;;;;-1.80;58.50;102210.38;10388055;28;20057;-66
2023/02/07 21:25:38;;;;;;;23.60;12.45;;;;;;;-1.88;58.68;102208.44;10388639;28;20051;-66
2023/02/07 21:30:40;;;;;;;26.08;13.82;;;;;;;-1.95;58.89;102203.94;10386474;28;20045;-66
2023/02/07 21:35:42;;;;;;;18.35;12.40;;;;;;;-1.97;58.96;102203.91;10381169;28;20405;-66
2023/02/07 21:40:44;;;;;;;22.92;13.93;;;;;;;-1.98;59.08;102193.63;10384524;28;20676;-66
2023/02/07 21:45:46;;;;;;;16.48;11.18;;;;;;;-2.00;59.21;102191.88;10387314;28;20406;-66
2023/02/07 21:50:47;;;;;;;18.92;10.52;;;;;;;-2.01;59.46;102194.41;10386288;28;20049;-66
2023/02/07 21:55:49;;;;;;;16.58;10.45;;;;;;;-2.06;59.53;102196.84;10387322;28;20138;-66
2023/02/07 22:00:51;;;;;;;14.13;9.25;;;;;;;-2.10;59.42;102202.72;10385563;28;20068;-66
2023/02/07 22:05:53;;;;;;;17.02;10.48;;;;;;;-2.36;59.66;102200.25;10386774;28;20065;-66
2023/02/07 22:10:55;;;;;;;15.32;9.90;;;;;;;-2.38;59.70;102187.38;10385646;28;20046;-66
2023/02/07 22:15:56;;;;;;;17.67;10.68;;;;;;;-2.36;59.79;102180.63;10385302;28;20057;-66
2023/02/07 22:21:03;;;;;;;15.25;10.38;;;;;;;-2.35;60.07;102184.94;10385573;28;20056;-66
2023/02/07 22:26:05;;;;;;;20.33;11.25;;;;;;;-2.34;59.93;102184.09;10385921;28;20080;-66
2023/02/07 22:31:28;;;;;;;22.25;13.38;;;;;;;-2.43;60.07;102194.09;10400115;28;20123;-66
2023/02/07 22:36:32;;;;;;;19.02;11.10;;;;;;;-2.49;60.30;102187.91;10384572;28;20041;-66
2023/02/07 22:41:35;;;;;;;18.20;11.52;;;;;;;-2.54;60.18;102186.91;10378869;28;20587;-66
2023/02/07 22:46:37;;;;;;;14.98;9.75;;;;;;;-2.53;60.32;102184.38;10385750;28;20405;-66
2023/02/07 22:51:38;;;;;;;18.20;9.95;;;;;;;-2.52;60.24;102178.44;10384323;28;20049;-66
2023/02/07 22:56:40;;;;;;;17.85;11.13;;;;;;;-2.54;60.39;102180.09;10385627;28;20946;-66
2023/02/07 23:01:43;;;;;;;22.13;13.60;;;;;;;-2.59;60.29;102168.81;10383936;28;20054;-66
2023/02/07 23:06:45;;;;;;;23.85;14.55;;;;;;;-2.64;60.67;102174.66;10384943;28;20408;-66
2023/02/07 23:11:47;;;;;;;19.27;11.65;;;;;;;-2.70;60.91;102183.03;10384393;28;20045;-66
2023/02/07 23:16:49;;;;;;;20.10;12.27;;;;;;;-2.68;60.81;102183.94;10383312;28;20068;-66
2023/02/07 23:21:50;;;;;;;19.50;11.25;;;;;;;-2.70;61.00;102177.91;10383802;28;20049;-66
2023/02/07 23:26:52;;;;;;;18.88;11.60;;;;;;;-2.73;61.10;102179.53;10386564;28;20046;-66